Terminal Aerodrome Forecast
Issued by NWS

Home | Current Version | Previous Version | Text Only | Print | Product List | Glossary Off
Versions: 1 2 3 4 5 6 7 8 9 10 11 12 13 14 15 16 17 18 19

263
FTUS43 KBIS 200524
TAFDIK
TAF
KDIK 200524Z 2006/2106 08007KT P6SM -RA BKN035 OVC045
     FM200900 12005KT 6SM -RASN SCT015 BKN025 OVC035
     FM201200 16006KT P6SM OVC025
     FM201800 26008KT P6SM BKN035
     FM202000 32009KT P6SM OVC045
     FM210100 35008KT P6SM BKN080=

USA.gov is the U.S. government's official web portal to all federal, state and local government web resources and services.